Time;durP1;ratioP1;P1;durP2;ratioP2;P2;SDS_P1;SDS_P2;PMS_P1;PMS_P2;Temp;Humidity;BMP_temperature;BMP_pressure;BME280_temperature;BME280_humidity;BME280_pressure;Samples;Min_cycle;Max_cycle;Signal;HPM_P1;HPM_P2
2022/03/10 01:11:43;;;;;;;5.73;3.43;;;;;;;-2.01;57.80;97255.28;6245086;22;20204;-96
2022/03/10 01:33:38;;;;;;;4.93;3.30;;;;;;;-1.22;57.74;97357.28;6166207;22;20838;-96
2022/03/10 01:36:29;;;;;;;5.33;2.97;;;;;;;-2.36;57.59;97167.13;6221558;22;20195;-96
2022/03/10 01:39:15;;;;;;;4.53;3.27;;;;;;;-2.43;58.14;97184.00;6271129;22;20194;-96
2022/03/10 01:42:08;;;;;;;5.17;3.20;;;;;;;-1.39;57.96;97358.88;6223996;22;20267;-96
2022/03/10 01:45:23;;;;;;;4.43;3.13;;;;;;;-2.67;56.73;97148.34;6283394;22;20431;-96
2022/03/10 01:48:13;;;;;;;3.30;2.90;;;;;;;-2.35;57.13;97179.84;6277543;22;20181;-96
2022/03/10 01:51:04;;;;;;;4.70;3.20;;;;;;;-2.39;56.94;97198.38;6243743;22;20205;-96
2022/03/10 01:53:43;;;;;;;5.80;3.50;;;;;;;-1.58;57.10;97321.53;6254097;22;20172;-96
2022/03/10 01:56:25;;;;;;;5.50;3.33;;;;;;;-2.29;56.95;97158.75;6278467;22;20226;-96
2022/03/10 01:59:32;;;;;;;4.43;3.30;;;;;;;-1.17;56.64;97317.50;6282143;22;20187;-96
2022/03/10 02:02:15;;;;;;;5.67;3.40;;;;;;;-1.90;57.07;97197.88;6224924;22;20196;-96
2022/03/10 02:04:54;;;;;;;4.90;3.07;;;;;;;-1.76;55.19;97203.84;6249910;22;20163;-96
2022/03/10 03:19:32;;;;;;;5.97;3.80;;;;;;;-1.72;57.16;97307.06;6299879;22;20206;-96
2022/03/10 03:23:23;;;;;;;5.17;3.60;;;;;;;-2.77;56.39;97187.13;6250138;22;20209;-96
2022/03/10 03:52:04;;;;;;;2.90;2.57;;;;;;;-1.25;53.30;97378.44;6211571;22;20644;-96
2022/03/10 03:54:58;;;;;;;4.40;3.00;;;;;;;-2.32;53.59;97172.25;6252877;22;20239;-96
2022/03/10 03:58:32;;;;;;;4.60;3.03;;;;;;;-2.19;54.41;97188.38;6302919;22;20255;-96
2022/03/10 04:01:21;;;;;;;3.50;2.53;;;;;;;-2.37;51.92;97155.31;6234851;22;20188;-96
2022/03/10 04:04:42;;;;;;;5.37;3.40;;;;;;;-2.47;52.44;97218.63;6268304;22;20216;-96
2022/03/10 04:17:40;;;;;;;5.33;3.73;;;;;;;-1.63;56.48;97356.19;6284529;22;20214;-96
2022/03/10 04:32:54;;;;;;;6.67;4.67;;;;;;;-1.65;57.40;97275.78;6183566;22;20238;-96
2022/03/10 04:35:32;;;;;;;7.07;5.57;;;;;;;-1.79;58.49;97234.25;6215295;22;20205;-96
2022/03/10 04:44:37;;;;;;;6.03;3.67;;;;;;;-2.07;55.08;97255.25;6205958;22;20240;-96
2022/03/10 04:47:21;;;;;;;6.87;4.17;;;;;;;-2.18;55.95;97287.28;6251291;22;20190;-96
2022/03/10 04:50:17;;;;;;;7.27;4.00;;;;;;;-2.17;55.19;97278.88;6236645;22;20181;-95
2022/03/10 04:53:21;;;;;;;5.93;4.23;;;;;;;-1.70;54.77;97363.78;6240698;22;20187;-96
2022/03/10 04:56:15;;;;;;;4.63;3.30;;;;;;;-1.42;54.14;97389.34;6272332;22;20170;-95
2022/03/10 05:09:05;;;;;;;4.40;3.43;;;;;;;-1.71;52.82;97262.25;6193373;22;20234;-96
2022/03/10 05:18:05;;;;;;;5.30;4.10;;;;;;;-2.18;53.74;97216.28;6170688;22;20186;-96
2022/03/10 05:28:13;;;;;;;5.53;3.43;;;;;;;-0.46;52.35;97414.34;6274104;22;20571;-93
2022/03/10 06:32:13;;;;;;;4.50;3.50;;;;;;;-0.76;53.16;97471.00;6146871;22;21489;31
2022/03/10 06:34:40;;;;;;;5.70;3.83;;;;;;;-1.21;53.36;97364.91;6167389;23;20222;-88
2022/03/10 06:37:08;;;;;;;6.03;4.30;;;;;;;-0.76;52.07;97471.00;6143462;23;20240;-88
2022/03/10 06:39:35;;;;;;;4.40;3.53;;;;;;;-1.05;51.21;97457.31;6154873;23;20185;-87
2022/03/10 06:42:03;;;;;;;2.20;2.00;;;;;;;-1.63;53.10;97404.44;6130705;23;20225;-90
2022/03/10 06:44:36;;;;;;;4.53;3.60;;;;;;;-1.61;53.07;97402.75;6178723;23;20560;-89
2022/03/10 06:47:12;;;;;;;6.10;4.13;;;;;;;-1.22;52.87;97457.22;6180312;23;20193;-88
2022/03/10 06:49:39;;;;;;;4.63;2.80;;;;;;;-0.96;48.86;97422.63;6153083;23;20181;-92
2022/03/10 06:52:08;;;;;;;3.30;2.67;;;;;;;-0.56;48.26;97471.97;6155383;23;20213;-87
2022/03/10 06:54:37;;;;;;;6.50;3.70;;;;;;;-0.86;50.27;97451.47;6180352;23;20162;-88
2022/03/10 06:57:05;;;;;;;7.07;3.40;;;;;;;-0.76;49.63;97422.72;6178239;23;20163;-89
2022/03/10 06:59:32;;;;;;;8.07;4.70;;;;;;;-0.55;50.04;97439.75;6157680;23;20170;-88
2022/03/10 07:02:01;;;;;;;7.87;5.00;;;;;;;-0.37;50.31;97450.84;6154963;23;20202;-95
2022/03/10 07:04:34;;;;;;;13.40;5.20;;;;;;;-0.41;49.79;97438.97;6186653;23;20700;-91
2022/03/10 07:07:05;;;;;;;6.63;4.27;;;;;;;-0.83;51.26;97415.91;6181550;23;20170;-88
2022/03/10 07:09:33;;;;;;;6.00;4.17;;;;;;;-0.46;51.66;97463.53;6155007;23;20720;-88
2022/03/10 07:12:00;;;;;;;6.63;4.17;;;;;;;-0.30;50.95;97451.72;6153952;23;20179;-87
2022/03/10 07:14:29;;;;;;;10.20;4.60;;;;;;;-0.04;49.81;97462.81;6130431;23;20277;-89
2022/03/10 07:17:02;;;;;;;8.67;4.50;;;;;;;0.19;49.32;97462.84;6131203;23;20722;-92
2022/03/10 07:19:34;;;;;;;8.50;4.63;;;;;;;0.22;48.92;97453.53;6152482;23;20178;-88
2022/03/10 07:22:01;;;;;;;8.07;4.63;;;;;;;0.26;49.49;97459.47;6105427;23;20543;-88
2022/03/10 07:24:31;;;;;;;6.27;3.87;;;;;;;0.10;49.24;97463.69;6178807;23;20232;-91
2022/03/10 07:27:00;;;;;;;5.87;3.70;;;;;;;-0.28;47.92;97369.47;6155168;23;20170;-89
2022/03/10 07:29:31;;;;;;;13.63;4.83;;;;;;;0.11;48.58;97428.88;6130503;23;20197;-92
2022/03/10 07:31:58;;;;;;;7.87;4.77;;;;;;;0.23;49.66;97454.38;6127182;23;20181;-89
2022/03/10 07:34:26;;;;;;;7.83;4.80;;;;;;;0.05;50.33;97470.47;6158632;23;20200;-88
2022/03/10 07:36:57;;;;;;;6.63;4.37;;;;;;;-0.04;51.64;97476.38;6182794;23;20488;-91
2022/03/10 07:39:39;;;;;;;7.93;4.90;;;;;;;0.07;52.45;97473.00;6145111;23;20166;-89
2022/03/10 07:42:28;;;;;;;8.13;5.40;;;;;;;0.04;52.64;97489.16;6162040;23;20214;-88
2022/03/10 07:44:58;;;;;;;16.63;7.03;;;;;;;0.31;53.60;97489.16;6157918;23;20162;-87
2022/03/10 07:47:28;;;;;;;10.20;6.17;;;;;;;0.38;52.07;97472.22;6157606;23;20201;-88
2022/03/10 07:49:59;;;;;;;12.17;7.27;;;;;;;0.45;50.82;97471.38;6132341;23;20462;-90
2022/03/10 07:52:27;;;;;;;7.50;4.70;;;;;;;0.49;49.66;97453.56;6158157;23;20592;-88
2022/03/10 07:54:55;;;;;;;11.00;5.13;;;;;;;0.59;48.72;97428.91;6180862;23;20167;-89
2022/03/10 07:57:22;;;;;;;8.47;5.03;;;;;;;1.06;48.51;97464.53;6179010;23;20186;-91
2022/03/10 07:59:56;;;;;;;7.07;5.03;;;;;;;0.77;50.06;97454.38;6209433;23;20163;-89
2022/03/10 08:02:23;;;;;;;8.13;5.27;;;;;;;0.65;51.47;97469.66;6181784;23;20190;-89
2022/03/10 08:04:51;;;;;;;7.40;5.20;;;;;;;0.81;51.76;97489.19;6138984;23;20249;-94
2022/03/10 08:07:32;;;;;;;9.80;6.53;;;;;;;0.76;51.27;97467.97;6137861;23;20189;-90
2022/03/10 08:10:01;;;;;;;10.03;5.57;;;;;;;0.54;50.10;97456.06;6161281;23;20163;-93
2022/03/10 08:12:39;;;;;;;7.87;5.13;;;;;;;0.79;50.08;97486.66;6134669;23;20190;-95
2022/03/10 08:15:10;;;;;;;8.57;6.20;;;;;;;0.70;49.51;97473.09;6136676;23;20173;-94
2022/03/10 08:17:39;;;;;;;7.50;4.97;;;;;;;0.78;47.57;97435.69;6136378;23;20182;-94
2022/03/10 08:20:10;;;;;;;7.80;4.77;;;;;;;0.79;47.92;97412.75;6134741;23;20170;-93
2022/03/10 08:22:39;;;;;;;7.50;4.80;;;;;;;1.06;49.02;97462.81;6153769;23;20202;-90
2022/03/10 08:25:12;;;;;;;8.57;5.33;;;;;;;1.08;48.62;97481.53;6174154;23;20182;-91
2022/03/10 08:27:39;;;;;;;8.83;5.27;;;;;;;1.21;49.23;97478.09;6187845;23;20163;-94
2022/03/10 08:30:08;;;;;;;6.50;4.03;;;;;;;1.21;46.88;97467.03;6162362;23;20721;-95
2022/03/10 08:32:35;;;;;;;4.67;3.80;;;;;;;0.98;45.64;97453.50;6162355;23;20566;-92
2022/03/10 08:35:06;;;;;;;7.27;4.07;;;;;;;0.98;47.01;97464.53;6160022;23;20174;-93
2022/03/10 08:37:35;;;;;;;7.73;5.13;;;;;;;0.96;47.40;97470.50;6110983;23;20177;-91
2022/03/10 08:40:10;;;;;;;24.47;9.90;;;;;;;0.30;49.09;97496.81;6160870;23;20174;-90
2022/03/10 08:42:39;;;;;;;10.73;6.80;;;;;;;0.13;48.84;97457.75;6160002;23;20262;-92
2022/03/10 08:45:07;;;;;;;8.47;4.93;;;;;;;0.22;51.66;97485.78;6192061;23;20243;-95
2022/03/10 08:47:37;;;;;;;5.87;4.00;;;;;;;-0.16;51.67;97424.59;6161670;23;20163;-92
2022/03/10 08:50:08;;;;;;;5.87;4.20;;;;;;;0.06;50.81;97489.16;6191212;23;20167;-87
2022/03/10 08:52:40;;;;;;;5.53;3.87;;;;;;;-0.14;50.18;97472.13;6171001;23;20198;-92
2022/03/10 08:55:09;;;;;;;3.90;3.53;;;;;;;0.18;49.40;97492.56;6195354;23;20174;-89
2022/03/10 08:57:37;;;;;;;5.73;3.80;;;;;;;-0.02;49.72;97482.31;6180125;23;20166;-88
2022/03/10 09:00:07;;;;;;;5.47;4.27;;;;;;;0.10;48.42;97473.88;6187322;23;20229;-89
2022/03/10 09:02:34;;;;;;;3.97;3.40;;;;;;;0.13;49.21;97501.03;6159428;23;20638;-94
2022/03/10 09:05:02;;;;;;;4.30;3.80;;;;;;;-0.16;49.67;97488.22;6156851;23;20163;-93
2022/03/10 09:07:30;;;;;;;10.53;5.13;;;;;;;0.02;51.45;97477.25;6182695;23;20198;-92
2022/03/10 09:10:00;;;;;;;13.90;6.93;;;;;;;0.46;50.22;97527.41;6157464;23;20224;-91
2022/03/10 09:12:30;;;;;;;8.10;5.50;;;;;;;0.55;50.06;97473.94;6157201;23;20182;-91
2022/03/10 09:15:08;;;;;;;5.90;4.37;;;;;;;0.91;49.04;97534.22;6183539;23;20253;-92
2022/03/10 09:17:37;;;;;;;7.77;4.60;;;;;;;0.89;48.16;97523.19;6183856;23;20190;-94
2022/03/10 09:20:05;;;;;;;10.23;5.90;;;;;;;0.63;49.02;97491.75;6182963;23;20174;-94
2022/03/10 09:22:34;;;;;;;12.77;6.00;;;;;;;0.70;48.54;97485.81;6186832;23;20190;-94
2022/03/10 09:25:05;;;;;;;8.17;5.17;;;;;;;0.92;49.27;97523.19;6169220;23;20209;-93
2022/03/10 09:27:35;;;;;;;5.90;4.33;;;;;;;0.75;48.61;97528.28;6197101;23;20185;-93
2022/03/10 09:30:04;;;;;;;8.73;6.40;;;;;;;0.90;48.79;97535.09;6195834;23;20177;-88
2022/03/10 09:32:38;;;;;;;15.13;6.63;;;;;;;0.98;49.32;97548.69;6176582;23;20178;-92
2022/03/10 09:35:12;;;;;;;7.70;4.90;;;;;;;0.30;48.61;97546.06;6194351;23;20216;-94
2022/03/10 09:37:42;;;;;;;4.97;4.00;;;;;;;-0.47;49.61;97534.72;6177246;23;20171;-87
2022/03/10 09:40:10;;;;;;;5.83;3.93;;;;;;;-0.39;49.47;97522.94;6207324;23;20178;-91
2022/03/10 09:42:39;;;;;;;6.93;5.23;;;;;;;0.00;49.76;97539.19;6180608;23;20194;-87
2022/03/10 09:45:11;;;;;;;10.00;6.17;;;;;;;0.15;48.67;97550.25;6156249;23;20166;-89
2022/03/10 09:47:44;;;;;;;6.90;3.53;;;;;;;-0.28;49.10;97539.94;6205997;23;20196;-91
2022/03/10 09:50:16;;;;;;;18.97;8.17;;;;;;;-0.11;50.32;97550.19;6177546;23;20269;-90
2022/03/10 09:52:48;;;;;;;7.47;5.57;;;;;;;-0.11;49.81;97551.03;6197523;23;20284;-87
2022/03/10 09:55:19;;;;;;;10.07;5.33;;;;;;;-0.18;49.61;97513.66;6191175;23;20171;-88
2022/03/10 09:57:48;;;;;;;7.10;4.60;;;;;;;0.23;48.98;97535.88;6184044;23;20166;-93
2022/03/10 10:00:17;;;;;;;8.07;5.30;;;;;;;0.38;48.01;97561.34;6158590;23;20177;-87
2022/03/10 10:02:48;;;;;;;6.73;5.13;;;;;;;0.04;47.80;97524.78;6168781;23;20228;-88
2022/03/10 10:05:30;;;;;;;6.57;4.57;;;;;;;0.05;47.93;97553.63;6166379;23;20173;-88
2022/03/10 10:08:18;;;;;;;6.17;4.30;;;;;;;-0.04;48.97;97560.38;6194498;23;20174;-89
2022/03/10 10:10:53;;;;;;;5.10;3.60;;;;;;;-0.31;48.19;97522.09;6170991;23;20166;-88
2022/03/10 10:13:26;;;;;;;4.90;4.20;;;;;;;0.16;48.41;97557.06;6121446;23;20217;-90
2022/03/10 10:15:57;;;;;;;6.10;4.37;;;;;;;0.24;47.94;97543.50;6174369;23;20244;-90
2022/03/10 10:18:26;;;;;;;7.13;4.20;;;;;;;0.34;48.05;97518.91;6197379;23;20194;-91
2022/03/10 10:21:19;;;;;;;9.13;5.40;;;;;;;0.47;46.33;97541.00;6153586;23;20171;-92
2022/03/10 10:23:52;;;;;;;5.20;4.20;;;;;;;0.41;46.49;97538.44;6197762;23;20201;-92
2022/03/10 10:26:26;;;;;;;5.17;4.17;;;;;;;0.26;47.41;97546.91;6199573;23;20195;-90
2022/03/10 10:29:02;;;;;;;12.13;5.80;;;;;;;0.31;47.83;97550.28;6198928;23;20175;-90
2022/03/10 10:31:30;;;;;;;7.07;4.70;;;;;;;-0.57;48.08;97487.22;6149056;23;20174;-92
2022/03/10 10:34:08;;;;;;;6.07;4.63;;;;;;;-0.04;48.24;97531.53;6152566;23;20258;-88
2022/03/10 10:36:38;;;;;;;9.37;5.83;;;;;;;0.15;47.97;97504.41;6195214;23;20166;-92
2022/03/10 10:39:13;;;;;;;6.93;4.50;;;;;;;0.51;46.66;97519.78;6161988;23;20171;-87
2022/03/10 10:41:45;;;;;;;9.43;5.20;;;;;;;0.87;47.18;97541.91;6186279;23;20173;-95
2022/03/10 10:44:23;;;;;;;5.50;3.97;;;;;;;0.94;44.35;97524.03;6188401;23;20198;-90
2022/03/10 10:46:59;;;;;;;7.97;4.73;;;;;;;1.04;46.20;97532.50;6165766;23;20170;-90
2022/03/10 10:49:38;;;;;;;7.57;5.10;;;;;;;1.55;44.60;97514.56;6192579;23;20174;-87
2022/03/10 10:52:12;;;;;;;6.70;4.77;;;;;;;1.31;44.45;97540.13;6172726;23;20171;-86
2022/03/10 10:54:45;;;;;;;6.93;4.10;;;;;;;1.43;42.89;97530.75;6199482;23;20174;-88
2022/03/10 10:57:20;;;;;;;7.47;4.93;;;;;;;1.44;43.12;97503.56;6195875;23;20170;-91
2022/03/10 11:00:03;;;;;;;7.90;5.00;;;;;;;1.37;43.39;97491.66;6197373;23;20245;-86
2022/03/10 11:02:31;;;;;;;7.70;4.77;;;;;;;1.10;44.76;97524.84;6191380;23;20167;-91
2022/03/10 11:05:03;;;;;;;8.03;4.87;;;;;;;1.25;44.11;97535.03;6192295;23;20170;-88
2022/03/10 11:07:32;;;;;;;10.77;5.50;;;;;;;1.06;44.60;97539.31;6189993;23;20167;-92
2022/03/10 11:10:01;;;;;;;6.70;4.47;;;;;;;0.83;44.10;97523.19;6165427;23;20558;-91
2022/03/10 11:12:34;;;;;;;6.77;4.80;;;;;;;0.34;45.36;97422.97;6201218;23;20170;-89
2022/03/10 11:15:03;;;;;;;7.27;5.33;;;;;;;0.69;43.39;97481.56;6200531;23;20323;-90
2022/03/10 11:17:31;;;;;;;7.80;4.30;;;;;;;0.52;44.32;97503.63;6148255;23;20170;-92
2022/03/10 11:20:05;;;;;;;7.90;4.83;;;;;;;0.74;45.77;97520.66;6196285;23;20250;-92
2022/03/10 11:23:02;;;;;;;6.17;4.17;;;;;;;0.98;44.02;97502.78;6199643;23;20265;-91
2022/03/10 11:25:53;;;;;;;6.30;4.60;;;;;;;0.97;44.52;97520.66;6193337;23;20171;-92
2022/03/10 11:28:30;;;;;;;7.63;4.50;;;;;;;0.62;46.30;97511.28;6185734;23;20240;-87
2022/03/10 11:31:06;;;;;;;5.37;3.70;;;;;;;0.03;45.90;97461.13;6189556;23;20162;-88
2022/03/10 11:33:40;;;;;;;5.37;3.70;;;;;;;0.27;44.81;97522.31;6195898;23;20205;-92
2022/03/10 11:36:23;;;;;;;4.37;3.10;;;;;;;0.24;45.08;97507.84;6143339;23;20221;-89
2022/03/10 11:38:58;;;;;;;4.93;3.53;;;;;;;0.51;44.58;97527.41;6145265;23;20577;-85
2022/03/10 11:41:30;;;;;;;5.80;4.27;;;;;;;0.35;44.31;97478.13;6188464;23;20162;-93
2022/03/10 11:44:02;;;;;;;4.50;3.43;;;;;;;0.35;45.77;97454.41;6162876;23;20194;-86
2022/03/10 11:46:36;;;;;;;5.40;4.20;;;;;;;0.73;45.99;97512.16;6184959;23;20177;-88
2022/03/10 11:49:11;;;;;;;6.67;4.80;;;;;;;1.02;45.59;97499.38;6157815;23;20174;-90
2022/03/10 11:51:52;;;;;;;11.27;5.90;;;;;;;1.12;45.41;97487.44;6157953;23;20166;-88
2022/03/10 11:54:30;;;;;;;5.37;3.70;;;;;;;0.90;44.87;97507.03;6155259;23;20174;-89
2022/03/10 11:57:03;;;;;;;5.87;4.40;;;;;;;0.70;46.18;97522.31;6156647;23;20174;-87
2022/03/10 11:59:32;;;;;;;7.07;5.30;;;;;;;1.03;47.48;97518.09;6181490;23;20173;-88
2022/03/10 12:02:02;;;;;;;7.53;4.40;;;;;;;0.31;52.26;97524.81;6156819;23;20213;-88
2022/03/10 12:04:35;;;;;;;9.70;4.87;;;;;;;-0.32;59.87;97547.53;6183305;23;20309;-88
2022/03/10 12:07:26;;;;;;;8.10;5.13;;;;;;;-1.25;70.39;97590.97;6154955;23;20162;-89
2022/03/10 12:10:08;;;;;;;8.03;5.03;;;;;;;-1.77;73.48;97539.69;6181208;23;20175;-88
2022/03/10 12:12:43;;;;;;;7.00;4.67;;;;;;;-1.69;74.78;97527.91;6182628;23;20181;-89
2022/03/10 12:15:32;;;;;;;6.63;4.20;;;;;;;-1.05;70.96;97558.97;6180664;23;20246;-89
2022/03/10 12:18:23;;;;;;;6.40;4.73;;;;;;;-0.75;69.63;97532.88;6181514;23;20213;-87
2022/03/10 12:20:56;;;;;;;5.50;3.83;;;;;;;-0.20;67.05;97537.41;6157081;23;20169;-89
2022/03/10 12:23:30;;;;;;;5.87;4.03;;;;;;;-0.24;64.46;97467.84;6134986;23;20209;-92
2022/03/10 12:26:06;;;;;;;8.37;5.80;;;;;;;0.49;66.71;97491.75;6188967;23;20193;-88
2022/03/10 12:28:37;;;;;;;7.67;4.87;;;;;;;0.96;59.69;97522.34;6196701;23;20185;-88
2022/03/10 12:31:16;;;;;;;8.27;5.00;;;;;;;1.23;56.99;97507.00;6208860;23;20198;-87
2022/03/10 12:33:52;;;;;;;7.13;5.30;;;;;;;1.61;57.24;97525.59;6156254;23;20202;-88
2022/03/10 12:36:34;;;;;;;10.40;5.60;;;;;;;1.67;56.52;97520.47;6158934;23;20194;-85
2022/03/10 12:39:14;;;;;;;6.77;4.57;;;;;;;1.64;56.39;97512.84;6159464;23;20178;-88
2022/03/10 12:41:50;;;;;;;14.70;5.70;;;;;;;1.93;55.96;97522.09;6157964;23;20182;-90
2022/03/10 12:44:21;;;;;;;6.73;3.77;;;;;;;1.94;57.01;97516.13;6158762;23;20221;-88
2022/03/10 12:46:51;;;;;;;12.90;6.30;;;;;;;2.20;57.74;97535.59;6181466;23;20170;-88
2022/03/10 12:49:33;;;;;;;7.83;5.43;;;;;;;2.29;56.94;97507.41;6157378;23;20175;-87
2022/03/10 12:52:09;;;;;;;5.93;5.03;;;;;;;2.52;52.14;97527.72;6159530;23;20178;-88
2022/03/10 12:54:39;;;;;;;9.17;5.53;;;;;;;2.66;54.18;97536.13;6183815;23;20197;-88
2022/03/10 12:57:09;;;;;;;7.83;4.53;;;;;;;2.71;46.71;97557.41;6168417;23;20248;-88
2022/03/10 12:59:41;;;;;;;7.10;3.93;;;;;;;2.34;44.80;97517.59;6155967;23;20561;-88
2022/03/10 13:02:16;;;;;;;5.53;3.77;;;;;;;1.69;47.03;97524.75;6187318;23;20167;-93
2022/03/10 13:04:57;;;;;;;5.10;3.70;;;;;;;1.13;51.31;97558.88;6186845;23;20549;-94
2022/03/10 13:07:28;;;;;;;4.43;3.43;;;;;;;0.51;53.90;97586.00;6157648;23;20170;-94
2022/03/10 13:10:00;;;;;;;8.40;4.60;;;;;;;0.11;56.40;97568.91;6137763;23;20170;-92
2022/03/10 13:12:29;;;;;;;6.63;4.40;;;;;;;0.38;56.08;97576.63;6188294;23;20201;-89
2022/03/10 13:14:58;;;;;;;5.77;3.93;;;;;;;0.00;58.06;97582.44;6138862;23;20186;-87
2022/03/10 13:17:42;;;;;;;4.70;3.87;;;;;;;-0.55;66.99;97633.88;6196527;23;20173;-90
2022/03/10 13:20:23;;;;;;;11.03;5.40;;;;;;;-1.05;74.83;97620.78;6197495;23;20166;-89
2022/03/10 13:23:01;;;;;;;10.00;5.63;;;;;;;-1.37;78.97;97590.84;6132792;23;20170;-88
2022/03/10 13:25:36;;;;;;;10.27;5.97;;;;;;;-0.82;79.75;97587.91;6156212;23;20173;-89
2022/03/10 13:28:06;;;;;;;10.90;5.60;;;;;;;-0.41;78.61;97555.97;6183920;23;20196;-88
2022/03/10 13:30:36;;;;;;;10.73;7.57;;;;;;;0.00;77.14;97564.63;6142554;23;20182;-88
2022/03/10 13:33:12;;;;;;;9.40;6.40;;;;;;;0.36;74.30;97547.75;6132981;23;20194;-89
2022/03/10 13:35:44;;;;;;;8.27;6.03;;;;;;;0.79;68.47;97565.66;6156861;23;20166;-90
2022/03/10 13:38:20;;;;;;;10.90;7.10;;;;;;;1.12;67.70;97548.66;6178927;23;20173;-88
2022/03/10 13:40:48;;;;;;;10.10;6.57;;;;;;;1.25;64.89;97553.75;6154702;23;20174;-88
2022/03/10 13:43:27;;;;;;;8.60;4.87;;;;;;;1.11;61.83;97516.38;6132279;23;20660;-87
2022/03/10 13:45:54;;;;;;;8.63;5.67;;;;;;;1.37;60.37;97563.94;6157283;23;20250;-87
2022/03/10 13:48:23;;;;;;;9.97;6.00;;;;;;;1.37;61.31;97543.53;6182296;23;20638;-87
2022/03/10 13:50:55;;;;;;;10.30;5.90;;;;;;;1.75;60.44;97563.00;6155704;23;20529;-90
2022/03/10 13:53:27;;;;;;;7.97;6.00;;;;;;;1.94;58.10;97569.75;6180464;23;20173;-87
2022/03/10 13:55:58;;;;;;;8.70;5.57;;;;;;;1.75;54.17;97558.75;6131082;23;20177;-93
2022/03/10 13:58:26;;;;;;;5.53;4.30;;;;;;;1.40;53.69;97571.56;6183950;23;20170;-90
2022/03/10 14:01:06;;;;;;;4.90;3.87;;;;;;;1.25;53.16;97581.81;6132573;23;20174;-94
2022/03/10 14:03:42;;;;;;;7.80;4.17;;;;;;;0.47;54.77;97584.31;6157344;23;20974;-90
2022/03/10 14:06:15;;;;;;;8.90;6.07;;;;;;;0.40;57.76;97596.19;6135179;23;20174;-92
2022/03/10 14:08:51;;;;;;;7.03;4.80;;;;;;;0.18;56.65;97546.03;6181167;23;20644;-93
2022/03/10 14:11:27;;;;;;;9.23;4.97;;;;;;;0.39;57.14;97566.44;6155608;23;20220;-92
2022/03/10 14:14:05;;;;;;;6.93;4.50;;;;;;;0.54;56.21;97578.34;6180477;23;20261;-91
2022/03/10 14:16:35;;;;;;;8.20;5.37;;;;;;;0.66;55.94;97558.03;6157795;23;20174;-89
2022/03/10 14:19:03;;;;;;;5.53;4.57;;;;;;;0.82;55.17;97575.84;6162917;23;20174;-87
2022/03/10 14:21:36;;;;;;;8.33;4.57;;;;;;;0.68;54.42;97562.25;6161186;23;20170;-92
2022/03/10 14:24:06;;;;;;;8.23;5.17;;;;;;;0.62;56.32;97571.56;6189675;23;20190;-90
2022/03/10 14:26:37;;;;;;;10.30;5.80;;;;;;;0.76;57.02;97596.22;6162962;23;20182;-88
2022/03/10 14:29:05;;;;;;;7.53;4.73;;;;;;;0.68;52.33;97572.44;6186470;23;20174;-88
2022/03/10 14:31:35;;;;;;;5.97;3.80;;;;;;;0.04;49.48;97523.94;6183755;23;20163;-91
2022/03/10 14:34:05;;;;;;;5.83;4.00;;;;;;;0.58;50.02;97610.63;6135795;23;20209;-94
2022/03/10 14:36:32;;;;;;;4.97;3.83;;;;;;;0.35;50.34;97597.03;6182360;23;20170;-95
2022/03/10 14:38:59;;;;;;;6.73;3.90;;;;;;;0.06;50.47;97606.25;6184944;23;20217;-93
2022/03/10 14:41:34;;;;;;;5.87;3.67;;;;;;;0.03;50.55;97596.91;6190172;23;20257;-96
2022/03/10 14:44:04;;;;;;;5.77;4.07;;;;;;;0.26;52.86;97619.91;6173947;23;20265;-89
2022/03/10 14:46:32;;;;;;;5.43;3.80;;;;;;;0.31;55.96;97631.78;6205683;23;20159;-89
2022/03/10 14:49:02;;;;;;;8.17;4.90;;;;;;;-0.11;58.64;97545.09;6199146;23;20154;-88
2022/03/10 14:51:30;;;;;;;7.00;4.33;;;;;;;0.27;59.11;97603.78;6173692;23;20178;-88
2022/03/10 14:54:01;;;;;;;6.57;4.97;;;;;;;0.17;57.83;97591.84;6190227;23;20273;-87
2022/03/10 14:56:34;;;;;;;12.83;5.40;;;;;;;0.25;57.89;97608.03;6188621;23;20519;-88
2022/03/10 14:59:03;;;;;;;7.90;4.60;;;;;;;0.24;57.83;97598.66;6164179;23;20189;-87
2022/03/10 15:01:31;;;;;;;26.63;8.47;;;;;;;0.51;58.71;97621.69;6130120;23;20178;-87
2022/03/10 15:04:02;;;;;;;10.97;6.27;;;;;;;0.77;58.38;97651.47;6181105;23;20294;-85
2022/03/10 15:06:32;;;;;;;8.80;5.83;;;;;;;0.73;58.46;97656.56;6154882;23;20505;-87
2022/03/10 15:09:06;;;;;;;7.47;4.70;;;;;;;0.80;57.10;97663.38;6179610;23;20175;-86
2022/03/10 15:11:38;;;;;;;7.17;4.83;;;;;;;0.12;60.38;97670.78;6179560;23;20190;-86
2022/03/10 15:14:10;;;;;;;13.33;6.10;;;;;;;-0.54;68.85;97689.00;6154203;23;20170;-87
2022/03/10 15:16:37;;;;;;;12.60;5.73;;;;;;;-1.37;75.91;97707.69;6181256;23;20175;-87
2022/03/10 15:19:06;;;;;;;8.17;5.90;;;;;;;-1.92;81.31;97680.78;6132708;23;20186;-85
2022/03/10 15:21:33;;;;;;;11.67;6.07;;;;;;;-2.05;80.89;97720.38;6183166;23;20243;-85
2022/03/10 15:24:07;;;;;;;9.13;4.83;;;;;;;-2.33;78.83;97647.28;6156577;23;20208;-85
2022/03/10 15:26:35;;;;;;;8.87;6.00;;;;;;;-1.98;79.35;97681.53;6156698;23;20206;-85
2022/03/10 15:29:03;;;;;;;17.97;6.60;;;;;;;-2.05;80.87;97629.03;6179421;23;20234;-85
2022/03/10 15:31:31;;;;;;;12.17;7.07;;;;;;;-1.70;81.08;97643.00;6155562;23;20200;-85
2022/03/10 15:33:59;;;;;;;13.67;7.93;;;;;;;-1.24;81.64;97662.13;6180979;23;20195;-85
2022/03/10 15:36:28;;;;;;;13.53;7.80;;;;;;;-1.24;76.03;97667.19;6182559;23;20196;-87
2022/03/10 15:39:00;;;;;;;9.70;6.00;;;;;;;-1.09;70.51;97690.19;6179026;23;20193;-86
2022/03/10 15:41:29;;;;;;;11.23;6.23;;;;;;;-1.17;66.65;97663.00;6155991;23;20239;-86
2022/03/10 15:44:00;;;;;;;8.90;5.50;;;;;;;-1.17;65.47;97668.09;6177750;23;20541;-86
2022/03/10 15:46:28;;;;;;;8.83;5.23;;;;;;;-1.19;66.01;97693.50;6130076;23;20186;-86
2022/03/10 15:48:58;;;;;;;6.50;4.83;;;;;;;-1.36;68.77;97704.31;6155134;23;20163;-86
2022/03/10 15:51:31;;;;;;;5.80;3.97;;;;;;;-1.59;69.65;97698.13;6106227;23;20646;-88
2022/03/10 15:53:59;;;;;;;6.60;3.90;;;;;;;-1.57;71.52;97688.84;6155377;23;20531;-84
2022/03/10 15:56:27;;;;;;;8.77;5.57;;;;;;;-2.05;70.93;97615.50;6154262;23;20248;-86
2022/03/10 15:58:55;;;;;;;10.17;5.37;;;;;;;-1.73;71.80;97701.34;6181147;23;20244;-87
2022/03/10 16:01:24;;;;;;;10.43;6.53;;;;;;;-1.80;72.07;97676.72;6179000;23;20576;-87
2022/03/10 16:03:51;;;;;;;7.83;5.37;;;;;;;-1.77;68.21;97676.75;6181949;23;20167;-86
2022/03/10 16:06:21;;;;;;;8.33;5.77;;;;;;;-1.62;70.18;97688.78;6179039;23;20246;-89
2022/03/10 16:08:54;;;;;;;10.33;6.73;;;;;;;-1.36;71.13;97724.66;6180517;23;20169;-88
2022/03/10 16:11:24;;;;;;;9.93;6.03;;;;;;;-1.39;71.51;97740.69;6181644;23;20595;-87
2022/03/10 16:13:56;;;;;;;9.00;5.50;;;;;;;-2.07;74.15;97666.22;6181079;23;20163;-86
2022/03/10 16:16:30;;;;;;;8.47;5.70;;;;;;;-1.75;75.15;97741.06;6132204;23;20608;-87
2022/03/10 16:18:58;;;;;;;12.13;7.57;;;;;;;-1.69;76.34;97758.91;6187338;23;20184;-89
2022/03/10 16:21:27;;;;;;;12.33;7.73;;;;;;;-1.66;77.53;97758.13;6156080;23;20177;-87
2022/03/10 16:23:56;;;;;;;8.73;6.37;;;;;;;-1.80;77.97;97732.56;6153700;23;20180;-89
2022/03/10 16:26:23;;;;;;;18.20;9.67;;;;;;;-1.78;77.62;97751.19;6136550;23;20733;-89
2022/03/10 16:28:51;;;;;;;10.73;6.43;;;;;;;-1.98;77.23;97731.47;6162882;23;20184;-91
2022/03/10 16:31:20;;;;;;;13.63;8.13;;;;;;;-1.73;78.24;97779.16;6187209;23;20165;-90
2022/03/10 16:33:47;;;;;;;7.30;5.67;;;;;;;-2.00;78.75;97768.66;6174153;23;20280;-86
2022/03/10 16:36:14;;;;;;;13.73;7.90;;;;;;;-2.07;79.38;97752.47;6193994;23;20228;-88
2022/03/10 16:38:41;;;;;;;10.67;6.77;;;;;;;-1.84;78.66;97776.50;6188610;23;20176;-90
2022/03/10 16:41:13;;;;;;;11.37;7.33;;;;;;;-1.87;78.11;97760.34;6190373;23;20173;-88
2022/03/10 16:43:40;;;;;;;13.13;7.80;;;;;;;-1.85;77.44;97767.16;6202993;23;20642;-90
2022/03/10 16:46:07;;;;;;;12.90;8.10;;;;;;;-2.02;77.38;97739.88;6138811;23;20198;-94
2022/03/10 16:48:35;;;;;;;12.97;7.50;;;;;;;-1.72;75.55;97781.75;6192235;23;20171;-93
2022/03/10 16:51:02;;;;;;;10.13;6.50;;;;;;;-1.67;70.12;97789.44;6185488;23;20506;-92
2022/03/10 16:53:36;;;;;;;8.40;6.47;;;;;;;-1.63;70.11;97803.00;6137033;23;20177;-91
2022/03/10 16:56:04;;;;;;;9.50;5.00;;;;;;;-1.70;65.05;97764.84;6157914;23;20175;-87
2022/03/10 16:58:35;;;;;;;10.10;5.53;;;;;;;-1.56;65.53;97775.16;6158412;23;20173;-87
2022/03/10 17:01:03;;;;;;;4.33;3.47;;;;;;;-1.40;62.96;97802.47;6161782;23;20163;-88
2022/03/10 17:03:39;;;;;;;7.50;4.23;;;;;;;-1.34;64.38;97783.94;6145197;23;20173;-93
2022/03/10 17:06:07;;;;;;;9.67;6.37;;;;;;;-1.30;64.60;97760.28;6177147;23;20197;-86
2022/03/10 17:08:38;;;;;;;10.27;6.73;;;;;;;-1.38;63.56;97772.03;6176307;23;20179;-90
2022/03/10 17:11:09;;;;;;;7.80;5.50;;;;;;;-1.69;62.56;97732.72;6179720;23;20171;-90